sensor_id;sensor_type;location;lat;lon;timestamp;temperature;humidity
35668;DHT22;22158;59.280;17.806;2022-09-14T00:01:38;12.10;99.90
35668;DHT22;22158;59.280;17.806;2022-09-14T00:04:07;12.00;99.90
35668;DHT22;22158;59.280;17.806;2022-09-14T00:06:33;12.00;99.90
35668;DHT22;22158;59.280;17.806;2022-09-14T00:08:59;12.00;99.90
35668;DHT22;22158;59.280;17.806;2022-09-14T00:11:28;12.00;99.90
35668;DHT22;22158;59.280;17.806;2022-09-14T00:13:54;12.00;99.90
35668;DHT22;22158;59.280;17.806;2022-09-14T00:16:27;12.00;99.90
35668;DHT22;22158;59.280;17.806;2022-09-14T00:18:58;12.00;99.90
35668;DHT22;22158;59.280;17.806;2022-09-14T00:21:25;12.00;99.90
35668;DHT22;22158;59.280;17.806;2022-09-14T00:23:51;12.00;99.90
35668;DHT22;22158;59.280;17.806;2022-09-14T00:26:20;12.00;99.90
35668;DHT22;22158;59.280;17.806;2022-09-14T00:28:48;12.00;99.90
35668;DHT22;22158;59.280;17.806;2022-09-14T00:31:15;12.00;99.90
35668;DHT22;22158;59.280;17.806;2022-09-14T00:33:42;12.00;99.90
35668;DHT22;22158;59.280;17.806;2022-09-14T00:36:13;12.00;99.90
35668;DHT22;22158;59.280;17.806;2022-09-14T00:38:39;12.00;99.90
35668;DHT22;22158;59.280;17.806;2022-09-14T00:41:10;12.10;99.90
35668;DHT22;22158;59.280;17.806;2022-09-14T00:43:56;12.10;99.90
35668;DHT22;22158;59.280;17.806;2022-09-14T00:46:24;12.10;99.90
35668;DHT22;22158;59.280;17.806;2022-09-14T00:48:51;12.10;99.90
35668;DHT22;22158;59.280;17.806;2022-09-14T00:51:18;12.10;99.90
35668;DHT22;22158;59.280;17.806;2022-09-14T00:53:44;12.20;99.90
35668;DHT22;22158;59.280;17.806;2022-09-14T00:56:10;12.10;99.90
35668;DHT22;22158;59.280;17.806;2022-09-14T00:58:37;12.10;99.90
35668;DHT22;22158;59.280;17.806;2022-09-14T01:01:03;12.10;99.90
35668;DHT22;22158;59.280;17.806;2022-09-14T01:03:29;12.10;99.90
35668;DHT22;22158;59.280;17.806;2022-09-14T01:14:48;12.20;99.90
35668;DHT22;22158;59.280;17.806;2022-09-14T01:22:28;12.30;99.90
35668;DHT22;22158;59.280;17.806;2022-09-14T01:25:10;12.30;99.90
35668;DHT22;22158;59.280;17.806;2022-09-14T01:27:41;12.30;99.90
35668;DHT22;22158;59.280;17.806;2022-09-14T01:32:43;12.30;99.90
35668;DHT22;22158;59.280;17.806;2022-09-14T01:37:50;12.40;99.90
35668;DHT22;22158;59.280;17.806;2022-09-14T01:40:26;12.40;99.90
35668;DHT22;22158;59.280;17.806;2022-09-14T01:43:24;12.40;99.90
35668;DHT22;22158;59.280;17.806;2022-09-14T01:45:55;12.40;99.90
35668;DHT22;22158;59.280;17.806;2022-09-14T01:48:26;12.50;99.90
35668;DHT22;22158;59.280;17.806;2022-09-14T01:50:57;12.50;99.90
35668;DHT22;22158;59.280;17.806;2022-09-14T01:53:25;12.40;99.90
35668;DHT22;22158;59.280;17.806;2022-09-14T01:55:57;12.40;99.90
35668;DHT22;22158;59.280;17.806;2022-09-14T01:58:44;12.40;99.90
35668;DHT22;22158;59.280;17.806;2022-09-14T02:01:16;12.40;99.90
35668;DHT22;22158;59.280;17.806;2022-09-14T02:03:51;12.30;99.90
35668;DHT22;22158;59.280;17.806;2022-09-14T02:06:20;12.40;99.90
35668;DHT22;22158;59.280;17.806;2022-09-14T02:08:48;12.40;99.90
35668;DHT22;22158;59.280;17.806;2022-09-14T02:11:14;12.40;99.90
35668;DHT22;22158;59.280;17.806;2022-09-14T02:13:39;12.40;99.90
35668;DHT22;22158;59.280;17.806;2022-09-14T02:16:05;12.40;99.90
35668;DHT22;22158;59.280;17.806;2022-09-14T02:18:31;12.40;99.90
35668;DHT22;22158;59.280;17.806;2022-09-14T02:20:58;12.50;99.90
35668;DHT22;22158;59.280;17.806;2022-09-14T02:23:24;12.50;99.90
35668;DHT22;22158;59.280;17.806;2022-09-14T02:25:51;12.50;99.90
35668;DHT22;22158;59.280;17.806;2022-09-14T02:28:16;12.50;99.90
35668;DHT22;22158;59.280;17.806;2022-09-14T02:30:54;12.40;99.90
35668;DHT22;22158;59.280;17.806;2022-09-14T02:36:18;12.40;99.90
35668;DHT22;22158;59.280;17.806;2022-09-14T02:39:06;12.40;99.90
35668;DHT22;22158;59.280;17.806;2022-09-14T02:46:59;12.40;99.90
35668;DHT22;22158;59.280;17.806;2022-09-14T02:52:09;12.30;99.90
35668;DHT22;22158;59.280;17.806;2022-09-14T02:54:49;12.30;99.90
35668;DHT22;22158;59.280;17.806;2022-09-14T02:57:16;12.30;99.90
35668;DHT22;22158;59.280;17.806;2022-09-14T02:59:42;12.20;99.90
35668;DHT22;22158;59.280;17.806;2022-09-14T03:02:07;12.20;99.90
35668;DHT22;22158;59.280;17.806;2022-09-14T03:04:33;12.20;99.90
35668;DHT22;22158;59.280;17.806;2022-09-14T03:06:59;12.10;99.90
35668;DHT22;22158;59.280;17.806;2022-09-14T03:09:24;12.10;99.90
35668;DHT22;22158;59.280;17.806;2022-09-14T03:11:50;12.00;99.90
35668;DHT22;22158;59.280;17.806;2022-09-14T03:14:16;12.00;99.90
35668;DHT22;22158;59.280;17.806;2022-09-14T03:16:42;12.00;99.90
35668;DHT22;22158;59.280;17.806;2022-09-14T03:19:07;12.00;99.90
35668;DHT22;22158;59.280;17.806;2022-09-14T03:21:37;11.90;99.90
35668;DHT22;22158;59.280;17.806;2022-09-14T03:24:02;11.90;99.90
35668;DHT22;22158;59.280;17.806;2022-09-14T03:26:28;11.80;99.90
35668;DHT22;22158;59.280;17.806;2022-09-14T03:28:56;11.70;99.90
35668;DHT22;22158;59.280;17.806;2022-09-14T03:31:23;11.70;99.90
35668;DHT22;22158;59.280;17.806;2022-09-14T03:33:56;11.70;99.90
35668;DHT22;22158;59.280;17.806;2022-09-14T03:36:24;11.60;99.90
35668;DHT22;22158;59.280;17.806;2022-09-14T03:38:52;11.60;99.90
35668;DHT22;22158;59.280;17.806;2022-09-14T03:41:19;11.60;99.90
35668;DHT22;22158;59.280;17.806;2022-09-14T03:43:45;11.50;99.90
35668;DHT22;22158;59.280;17.806;2022-09-14T03:46:19;11.40;99.90
35668;DHT22;22158;59.280;17.806;2022-09-14T03:48:48;11.30;99.90
35668;DHT22;22158;59.280;17.806;2022-09-14T03:51:14;11.30;99.90
35668;DHT22;22158;59.280;17.806;2022-09-14T03:53:41;11.30;99.90
35668;DHT22;22158;59.280;17.806;2022-09-14T03:56:09;11.30;99.90
35668;DHT22;22158;59.280;17.806;2022-09-14T03:58:35;11.30;99.90
35668;DHT22;22158;59.280;17.806;2022-09-14T04:01:09;11.20;99.90
35668;DHT22;22158;59.280;17.806;2022-09-14T04:03:35;11.20;99.90
35668;DHT22;22158;59.280;17.806;2022-09-14T04:06:02;11.20;99.90
35668;DHT22;22158;59.280;17.806;2022-09-14T04:08:31;11.20;99.90
35668;DHT22;22158;59.280;17.806;2022-09-14T04:10:57;11.20;99.90
35668;DHT22;22158;59.280;17.806;2022-09-14T04:13:23;11.20;99.90
35668;DHT22;22158;59.280;17.806;2022-09-14T04:15:58;11.20;99.90
35668;DHT22;22158;59.280;17.806;2022-09-14T04:18:25;11.20;99.90
35668;DHT22;22158;59.280;17.806;2022-09-14T04:21:03;11.20;99.90
35668;DHT22;22158;59.280;17.806;2022-09-14T04:23:29;11.10;99.90
35668;DHT22;22158;59.280;17.806;2022-09-14T04:25:55;11.10;99.90
35668;DHT22;22158;59.280;17.806;2022-09-14T04:28:21;11.00;99.90
35668;DHT22;22158;59.280;17.806;2022-09-14T04:30:58;11.00;99.90
35668;DHT22;22158;59.280;17.806;2022-09-14T04:33:28;10.90;99.90
35668;DHT22;22158;59.280;17.806;2022-09-14T04:36:09;10.90;99.90
35668;DHT22;22158;59.280;17.806;2022-09-14T04:38:35;10.90;99.90
35668;DHT22;22158;59.280;17.806;2022-09-14T04:41:06;11.00;99.90
35668;DHT22;22158;59.280;17.806;2022-09-14T04:43:32;11.00;99.90
35668;DHT22;22158;59.280;17.806;2022-09-14T04:46:03;11.00;99.90
35668;DHT22;22158;59.280;17.806;2022-09-14T04:48:30;11.00;99.90
35668;DHT22;22158;59.280;17.806;2022-09-14T04:51:10;10.90;99.90
35668;DHT22;22158;59.280;17.806;2022-09-14T04:53:38;11.00;99.90
35668;DHT22;22158;59.280;17.806;2022-09-14T04:56:07;10.90;99.90
35668;DHT22;22158;59.280;17.806;2022-09-14T04:58:34;10.90;99.90
35668;DHT22;22158;59.280;17.806;2022-09-14T05:01:10;10.80;99.90
35668;DHT22;22158;59.280;17.806;2022-09-14T05:03:37;10.80;99.90
35668;DHT22;22158;59.280;17.806;2022-09-14T05:06:26;10.80;99.90
35668;DHT22;22158;59.280;17.806;2022-09-14T05:08:53;10.80;99.90
35668;DHT22;22158;59.280;17.806;2022-09-14T05:11:21;10.80;99.90
35668;DHT22;22158;59.280;17.806;2022-09-14T05:13:48;10.80;99.90
35668;DHT22;22158;59.280;17.806;2022-09-14T05:16:19;10.90;99.90
35668;DHT22;22158;59.280;17.806;2022-09-14T05:18:46;10.90;99.90
35668;DHT22;22158;59.280;17.806;2022-09-14T05:21:15;11.00;99.90
35668;DHT22;22158;59.280;17.806;2022-09-14T05:23:41;10.90;99.90
35668;DHT22;22158;59.280;17.806;2022-09-14T05:26:07;11.00;99.90
35668;DHT22;22158;59.280;17.806;2022-09-14T05:28:34;11.00;99.90
35668;DHT22;22158;59.280;17.806;2022-09-14T05:31:09;11.10;99.90
35668;DHT22;22158;59.280;17.806;2022-09-14T05:33:35;11.10;99.90
35668;DHT22;22158;59.280;17.806;2022-09-14T05:36:04;11.20;99.90
35668;DHT22;22158;59.280;17.806;2022-09-14T05:38:31;11.20;99.90
35668;DHT22;22158;59.280;17.806;2022-09-14T05:40:58;11.20;99.90
35668;DHT22;22158;59.280;17.806;2022-09-14T05:43:24;11.30;99.90
35668;DHT22;22158;59.280;17.806;2022-09-14T05:45:50;11.20;99.90
35668;DHT22;22158;59.280;17.806;2022-09-14T05:48:16;11.30;99.90
35668;DHT22;22158;59.280;17.806;2022-09-14T05:50:42;11.40;99.90
35668;DHT22;22158;59.280;17.806;2022-09-14T05:53:07;11.40;99.90
35668;DHT22;22158;59.280;17.806;2022-09-14T05:55:33;11.40;99.90
35668;DHT22;22158;59.280;17.806;2022-09-14T05:57:59;11.40;99.90
35668;DHT22;22158;59.280;17.806;2022-09-14T06:00:25;11.50;99.90
35668;DHT22;22158;59.280;17.806;2022-09-14T06:02:53;11.50;99.90
35668;DHT22;22158;59.280;17.806;2022-09-14T06:05:19;11.50;99.90
35668;DHT22;22158;59.280;17.806;2022-09-14T06:07:50;11.50;99.90
35668;DHT22;22158;59.280;17.806;2022-09-14T06:10:16;11.50;99.90
35668;DHT22;22158;59.280;17.806;2022-09-14T06:12:41;11.50;99.90
35668;DHT22;22158;59.280;17.806;2022-09-14T06:15:07;11.50;99.90
35668;DHT22;22158;59.280;17.806;2022-09-14T06:17:33;11.60;99.90
35668;DHT22;22158;59.280;17.806;2022-09-14T06:19:59;11.60;99.90
35668;DHT22;22158;59.280;17.806;2022-09-14T06:22:24;11.60;99.90
35668;DHT22;22158;59.280;17.806;2022-09-14T06:24:50;11.70;99.90
35668;DHT22;22158;59.280;17.806;2022-09-14T06:27:16;11.70;99.90
35668;DHT22;22158;59.280;17.806;2022-09-14T06:29:41;11.60;99.90
35668;DHT22;22158;59.280;17.806;2022-09-14T06:32:07;11.60;99.90
35668;DHT22;22158;59.280;17.806;2022-09-14T06:34:32;11.60;99.90
35668;DHT22;22158;59.280;17.806;2022-09-14T06:36:58;11.60;99.90
35668;DHT22;22158;59.280;17.806;2022-09-14T06:39:24;11.60;99.90
35668;DHT22;22158;59.280;17.806;2022-09-14T06:41:49;11.70;99.90
35668;DHT22;22158;59.280;17.806;2022-09-14T06:44:16;11.70;99.90
35668;DHT22;22158;59.280;17.806;2022-09-14T06:46:42;11.80;99.90
35668;DHT22;22158;59.280;17.806;2022-09-14T06:49:11;11.80;99.90
35668;DHT22;22158;59.280;17.806;2022-09-14T06:51:40;11.80;99.90
35668;DHT22;22158;59.280;17.806;2022-09-14T06:54:06;11.70;99.90
35668;DHT22;22158;59.280;17.806;2022-09-14T06:56:34;11.60;99.90
35668;DHT22;22158;59.280;17.806;2022-09-14T06:59:00;11.50;99.90
35668;DHT22;22158;59.280;17.806;2022-09-14T07:01:26;11.50;99.90
35668;DHT22;22158;59.280;17.806;2022-09-14T07:03:53;11.60;99.90
35668;DHT22;22158;59.280;17.806;2022-09-14T07:06:21;11.60;99.90
35668;DHT22;22158;59.280;17.806;2022-09-14T07:08:47;11.70;99.90
35668;DHT22;22158;59.280;17.806;2022-09-14T07:11:15;11.60;99.90
35668;DHT22;22158;59.280;17.806;2022-09-14T07:13:42;11.60;99.90
35668;DHT22;22158;59.280;17.806;2022-09-14T07:16:07;11.60;99.90
35668;DHT22;22158;59.280;17.806;2022-09-14T07:18:34;11.60;99.90
35668;DHT22;22158;59.280;17.806;2022-09-14T07:21:08;11.60;99.90
35668;DHT22;22158;59.280;17.806;2022-09-14T07:23:39;11.70;99.90
35668;DHT22;22158;59.280;17.806;2022-09-14T07:26:17;11.60;99.90
35668;DHT22;22158;59.280;17.806;2022-09-14T07:28:45;11.70;99.90
35668;DHT22;22158;59.280;17.806;2022-09-14T07:31:26;11.70;99.90
35668;DHT22;22158;59.280;17.806;2022-09-14T07:33:58;11.80;99.90
35668;DHT22;22158;59.280;17.806;2022-09-14T07:36:26;11.90;99.90
35668;DHT22;22158;59.280;17.806;2022-09-14T07:38:52;12.00;99.90
35668;DHT22;22158;59.280;17.806;2022-09-14T07:41:20;12.00;99.90
35668;DHT22;22158;59.280;17.806;2022-09-14T07:43:50;12.20;99.90
35668;DHT22;22158;59.280;17.806;2022-09-14T07:46:16;12.30;99.90
35668;DHT22;22158;59.280;17.806;2022-09-14T07:48:42;12.40;99.90
35668;DHT22;22158;59.280;17.806;2022-09-14T07:51:09;12.50;99.90
35668;DHT22;22158;59.280;17.806;2022-09-14T07:53:36;12.50;99.90
35668;DHT22;22158;59.280;17.806;2022-09-14T07:56:04;12.60;99.90
35668;DHT22;22158;59.280;17.806;2022-09-14T07:58:30;12.60;99.90
35668;DHT22;22158;59.280;17.806;2022-09-14T08:00:57;12.60;99.90
35668;DHT22;22158;59.280;17.806;2022-09-14T08:03:24;12.60;99.90
35668;DHT22;22158;59.280;17.806;2022-09-14T08:06:03;12.70;99.90
35668;DHT22;22158;59.280;17.806;2022-09-14T08:08:35;12.70;99.90
35668;DHT22;22158;59.280;17.806;2022-09-14T08:11:12;12.80;99.90
35668;DHT22;22158;59.280;17.806;2022-09-14T08:13:45;13.00;99.90
35668;DHT22;22158;59.280;17.806;2022-09-14T08:16:11;13.10;99.90
35668;DHT22;22158;59.280;17.806;2022-09-14T08:18:38;13.10;99.90
35668;DHT22;22158;59.280;17.806;2022-09-14T08:21:10;13.20;99.90
35668;DHT22;22158;59.280;17.806;2022-09-14T08:23:37;13.30;99.90
35668;DHT22;22158;59.280;17.806;2022-09-14T08:26:08;13.30;99.90
35668;DHT22;22158;59.280;17.806;2022-09-14T08:28:35;13.30;99.90
35668;DHT22;22158;59.280;17.806;2022-09-14T08:31:09;13.40;99.90
35668;DHT22;22158;59.280;17.806;2022-09-14T08:33:37;13.40;99.90
35668;DHT22;22158;59.280;17.806;2022-09-14T08:36:03;13.40;99.90
35668;DHT22;22158;59.280;17.806;2022-09-14T08:38:30;13.50;99.90
35668;DHT22;22158;59.280;17.806;2022-09-14T08:40:58;13.60;99.90
35668;DHT22;22158;59.280;17.806;2022-09-14T08:43:26;13.50;99.90
35668;DHT22;22158;59.280;17.806;2022-09-14T08:45:58;13.40;99.90
35668;DHT22;22158;59.280;17.806;2022-09-14T08:48:35;13.50;99.90
35668;DHT22;22158;59.280;17.806;2022-09-14T08:51:03;13.60;99.90
35668;DHT22;22158;59.280;17.806;2022-09-14T08:53:30;13.70;99.90
35668;DHT22;22158;59.280;17.806;2022-09-14T08:56:05;13.70;99.90
35668;DHT22;22158;59.280;17.806;2022-09-14T09:09:29;13.90;99.90
35668;DHT22;22158;59.280;17.806;2022-09-14T09:11:58;14.00;99.90
35668;DHT22;22158;59.280;17.806;2022-09-14T09:14:30;14.20;99.90
35668;DHT22;22158;59.280;17.806;2022-09-14T09:17:00;14.10;99.90
35668;DHT22;22158;59.280;17.806;2022-09-14T09:19:32;14.10;99.90
35668;DHT22;22158;59.280;17.806;2022-09-14T09:22:00;14.20;99.90
35668;DHT22;22158;59.280;17.806;2022-09-14T09:24:49;14.20;99.90
35668;DHT22;22158;59.280;17.806;2022-09-14T09:27:16;14.10;99.90
35668;DHT22;22158;59.280;17.806;2022-09-14T09:29:42;14.20;99.90
35668;DHT22;22158;59.280;17.806;2022-09-14T09:32:20;14.20;99.90
35668;DHT22;22158;59.280;17.806;2022-09-14T09:34:46;14.20;99.90
35668;DHT22;22158;59.280;17.806;2022-09-14T09:37:17;14.20;99.90
35668;DHT22;22158;59.280;17.806;2022-09-14T09:39:43;14.40;99.90
35668;DHT22;22158;59.280;17.806;2022-09-14T09:42:26;14.40;99.90
35668;DHT22;22158;59.280;17.806;2022-09-14T09:45:00;14.50;99.90
35668;DHT22;22158;59.280;17.806;2022-09-14T09:47:32;14.50;99.90
35668;DHT22;22158;59.280;17.806;2022-09-14T09:50:04;14.50;99.90
35668;DHT22;22158;59.280;17.806;2022-09-14T09:52:31;14.70;99.90
35668;DHT22;22158;59.280;17.806;2022-09-14T09:54:58;14.50;99.90
35668;DHT22;22158;59.280;17.806;2022-09-14T09:57:32;14.60;99.90
35668;DHT22;22158;59.280;17.806;2022-09-14T10:02:43;14.80;99.90
35668;DHT22;22158;59.280;17.806;2022-09-14T10:07:38;14.90;99.90
35668;DHT22;22158;59.280;17.806;2022-09-14T10:10:06;14.90;99.90
35668;DHT22;22158;59.280;17.806;2022-09-14T10:12:33;14.90;99.90
35668;DHT22;22158;59.280;17.806;2022-09-14T10:15:22;14.90;99.90
35668;DHT22;22158;59.280;17.806;2022-09-14T10:21:04;15.20;99.90
35668;DHT22;22158;59.280;17.806;2022-09-14T10:23:36;15.30;99.90
35668;DHT22;22158;59.280;17.806;2022-09-14T10:28:39;15.40;99.90
35668;DHT22;22158;59.280;17.806;2022-09-14T10:33:47;15.50;99.90
35668;DHT22;22158;59.280;17.806;2022-09-14T10:55:17;15.80;99.90
35668;DHT22;22158;59.280;17.806;2022-09-14T10:58:01;15.90;99.90
35668;DHT22;22158;59.280;17.806;2022-09-14T11:00:47;15.90;99.90
35668;DHT22;22158;59.280;17.806;2022-09-14T11:03:18;16.00;99.90
35668;DHT22;22158;59.280;17.806;2022-09-14T11:08:44;15.90;99.90
35668;DHT22;22158;59.280;17.806;2022-09-14T11:11:35;15.80;99.90
35668;DHT22;22158;59.280;17.806;2022-09-14T11:25:08;16.80;99.90
35668;DHT22;22158;59.280;17.806;2022-09-14T11:30:22;17.20;99.90
35668;DHT22;22158;59.280;17.806;2022-09-14T11:35:24;17.40;99.90
35668;DHT22;22158;59.280;17.806;2022-09-14T11:40:29;17.80;99.90
35668;DHT22;22158;59.280;17.806;2022-09-14T11:42:59;17.80;99.90
35668;DHT22;22158;59.280;17.806;2022-09-14T11:45:43;17.70;99.90
35668;DHT22;22158;59.280;17.806;2022-09-14T11:48:22;17.70;99.90
35668;DHT22;22158;59.280;17.806;2022-09-14T11:50:49;17.50;99.90
35668;DHT22;22158;59.280;17.806;2022-09-14T11:53:18;17.70;99.90
35668;DHT22;22158;59.280;17.806;2022-09-14T11:55:49;17.50;99.90
35668;DHT22;22158;59.280;17.806;2022-09-14T11:58:20;17.60;99.90
35668;DHT22;22158;59.280;17.806;2022-09-14T12:11:52;18.20;99.60
35668;DHT22;22158;59.280;17.806;2022-09-14T12:19:39;17.60;99.90
35668;DHT22;22158;59.280;17.806;2022-09-14T12:24:56;17.40;99.20
35668;DHT22;22158;59.280;17.806;2022-09-14T12:27:22;17.30;99.90
35668;DHT22;22158;59.280;17.806;2022-09-14T12:29:48;17.10;99.90
35668;DHT22;22158;59.280;17.806;2022-09-14T12:32:40;17.00;99.90
35668;DHT22;22158;59.280;17.806;2022-09-14T12:40:54;16.80;99.90
35668;DHT22;22158;59.280;17.806;2022-09-14T12:51:30;17.00;99.90
35668;DHT22;22158;59.280;17.806;2022-09-14T13:05:24;17.00;99.90
35668;DHT22;22158;59.280;17.806;2022-09-14T13:07:51;17.20;99.90
35668;DHT22;22158;59.280;17.806;2022-09-14T13:10:33;17.20;99.90
35668;DHT22;22158;59.280;17.806;2022-09-14T13:13:01;17.20;99.90
35668;DHT22;22158;59.280;17.806;2022-09-14T13:15:35;17.10;99.90
35668;DHT22;22158;59.280;17.806;2022-09-14T13:20:56;16.90;99.90
35668;DHT22;22158;59.280;17.806;2022-09-14T13:23:36;16.90;99.90
35668;DHT22;22158;59.280;17.806;2022-09-14T13:26:24;17.20;99.90
35668;DHT22;22158;59.280;17.806;2022-09-14T13:28:52;17.60;99.90
35668;DHT22;22158;59.280;17.806;2022-09-14T13:31:36;17.90;99.90
35668;DHT22;22158;59.280;17.806;2022-09-14T13:34:02;18.00;99.90
35668;DHT22;22158;59.280;17.806;2022-09-14T13:36:34;18.00;99.90
35668;DHT22;22158;59.280;17.806;2022-09-14T13:39:02;18.00;99.90
35668;DHT22;22158;59.280;17.806;2022-09-14T13:41:29;18.00;99.90
35668;DHT22;22158;59.280;17.806;2022-09-14T13:43:56;17.90;99.90
35668;DHT22;22158;59.280;17.806;2022-09-14T13:46:24;17.70;99.90
35668;DHT22;22158;59.280;17.806;2022-09-14T13:48:51;17.70;99.90
35668;DHT22;22158;59.280;17.806;2022-09-14T13:51:24;17.60;99.90
35668;DHT22;22158;59.280;17.806;2022-09-14T13:53:56;17.30;99.90
35668;DHT22;22158;59.280;17.806;2022-09-14T13:56:29;17.30;99.90
35668;DHT22;22158;59.280;17.806;2022-09-14T14:01:38;16.90;99.90
35668;DHT22;22158;59.280;17.806;2022-09-14T14:04:05;17.10;99.90
35668;DHT22;22158;59.280;17.806;2022-09-14T14:06:33;17.10;99.90
35668;DHT22;22158;59.280;17.806;2022-09-14T14:11:29;17.00;99.90
35668;DHT22;22158;59.280;17.806;2022-09-14T14:13:55;16.90;99.90
35668;DHT22;22158;59.280;17.806;2022-09-14T14:16:24;16.90;99.90
35668;DHT22;22158;59.280;17.806;2022-09-14T14:21:25;16.90;99.90
35668;DHT22;22158;59.280;17.806;2022-09-14T14:24:26;16.70;99.90
35668;DHT22;22158;59.280;17.806;2022-09-14T14:26:55;16.60;99.90
35668;DHT22;22158;59.280;17.806;2022-09-14T14:29:21;16.50;99.90
35668;DHT22;22158;59.280;17.806;2022-09-14T14:31:47;16.40;99.90
35668;DHT22;22158;59.280;17.806;2022-09-14T14:36:43;16.10;99.90
35668;DHT22;22158;59.280;17.806;2022-09-14T14:39:09;16.00;99.90
35668;DHT22;22158;59.280;17.806;2022-09-14T14:41:36;15.90;99.90
35668;DHT22;22158;59.280;17.806;2022-09-14T14:44:02;15.90;99.90
35668;DHT22;22158;59.280;17.806;2022-09-14T14:46:27;15.80;99.90
35668;DHT22;22158;59.280;17.806;2022-09-14T14:48:54;15.80;99.90
35668;DHT22;22158;59.280;17.806;2022-09-14T14:51:20;15.80;99.90
35668;DHT22;22158;59.280;17.806;2022-09-14T14:53:46;15.90;99.90
35668;DHT22;22158;59.280;17.806;2022-09-14T14:56:12;15.90;99.90
35668;DHT22;22158;59.280;17.806;2022-09-14T14:58:45;16.00;99.90
35668;DHT22;22158;59.280;17.806;2022-09-14T15:01:11;16.00;99.90
35668;DHT22;22158;59.280;17.806;2022-09-14T15:03:37;16.20;99.90
35668;DHT22;22158;59.280;17.806;2022-09-14T15:06:15;16.60;99.90
35668;DHT22;22158;59.280;17.806;2022-09-14T15:08:42;16.90;99.90
35668;DHT22;22158;59.280;17.806;2022-09-14T15:11:16;17.10;99.90
35668;DHT22;22158;59.280;17.806;2022-09-14T15:13:44;17.30;99.90
35668;DHT22;22158;59.280;17.806;2022-09-14T15:16:09;17.50;99.90
35668;DHT22;22158;59.280;17.806;2022-09-14T15:18:35;17.70;99.90
35668;DHT22;22158;59.280;17.806;2022-09-14T15:21:01;18.00;99.90
35668;DHT22;22158;59.280;17.806;2022-09-14T15:23:26;18.00;99.90
35668;DHT22;22158;59.280;17.806;2022-09-14T15:25:52;18.00;99.90
35668;DHT22;22158;59.280;17.806;2022-09-14T15:28:18;18.00;99.90
35668;DHT22;22158;59.280;17.806;2022-09-14T15:30:44;17.90;99.90
35668;DHT22;22158;59.280;17.806;2022-09-14T15:33:10;17.90;99.90
35668;DHT22;22158;59.280;17.806;2022-09-14T15:35:36;17.90;99.90
35668;DHT22;22158;59.280;17.806;2022-09-14T15:38:04;17.70;99.90
35668;DHT22;22158;59.280;17.806;2022-09-14T15:40:29;17.60;99.90
35668;DHT22;22158;59.280;17.806;2022-09-14T15:42:55;17.50;99.90
35668;DHT22;22158;59.280;17.806;2022-09-14T15:45:21;17.40;99.90
35668;DHT22;22158;59.280;17.806;2022-09-14T15:47:46;17.20;99.90
35668;DHT22;22158;59.280;17.806;2022-09-14T15:50:12;17.10;99.90
35668;DHT22;22158;59.280;17.806;2022-09-14T15:52:38;16.90;99.90
35668;DHT22;22158;59.280;17.806;2022-09-14T15:55:06;16.80;99.90
35668;DHT22;22158;59.280;17.806;2022-09-14T15:57:32;16.70;99.90
35668;DHT22;22158;59.280;17.806;2022-09-14T15:59:58;16.60;99.90
35668;DHT22;22158;59.280;17.806;2022-09-14T16:02:24;16.50;99.90
35668;DHT22;22158;59.280;17.806;2022-09-14T16:04:50;16.40;99.90
35668;DHT22;22158;59.280;17.806;2022-09-14T16:07:15;16.30;99.90
35668;DHT22;22158;59.280;17.806;2022-09-14T16:09:41;16.20;99.90
35668;DHT22;22158;59.280;17.806;2022-09-14T16:12:08;16.10;99.90
35668;DHT22;22158;59.280;17.806;2022-09-14T16:14:34;16.10;99.90
35668;DHT22;22158;59.280;17.806;2022-09-14T16:17:00;16.00;99.90
35668;DHT22;22158;59.280;17.806;2022-09-14T16:19:27;16.00;99.90
35668;DHT22;22158;59.280;17.806;2022-09-14T16:21:53;16.00;99.90
35668;DHT22;22158;59.280;17.806;2022-09-14T16:24:19;15.90;99.90
35668;DHT22;22158;59.280;17.806;2022-09-14T16:26:45;15.80;99.90
35668;DHT22;22158;59.280;17.806;2022-09-14T16:29:16;15.70;99.90
35668;DHT22;22158;59.280;17.806;2022-09-14T16:31:43;15.70;99.90
35668;DHT22;22158;59.280;17.806;2022-09-14T16:34:32;15.70;99.90
35668;DHT22;22158;59.280;17.806;2022-09-14T16:36:57;15.60;99.90
35668;DHT22;22158;59.280;17.806;2022-09-14T16:39:26;15.60;99.90
35668;DHT22;22158;59.280;17.806;2022-09-14T16:41:52;15.50;99.90
35668;DHT22;22158;59.280;17.806;2022-09-14T16:44:24;15.40;99.90
35668;DHT22;22158;59.280;17.806;2022-09-14T16:46:52;15.40;99.90
35668;DHT22;22158;59.280;17.806;2022-09-14T16:49:18;15.40;99.90
35668;DHT22;22158;59.280;17.806;2022-09-14T16:51:44;15.30;99.90
35668;DHT22;22158;59.280;17.806;2022-09-14T16:54:15;15.30;99.90
35668;DHT22;22158;59.280;17.806;2022-09-14T16:56:41;15.30;99.90
35668;DHT22;22158;59.280;17.806;2022-09-14T16:59:06;15.20;99.90
35668;DHT22;22158;59.280;17.806;2022-09-14T17:01:38;15.20;99.90
35668;DHT22;22158;59.280;17.806;2022-09-14T17:04:06;15.20;99.90
35668;DHT22;22158;59.280;17.806;2022-09-14T17:06:34;15.10;99.90
35668;DHT22;22158;59.280;17.806;2022-09-14T17:09:10;15.10;99.90
35668;DHT22;22158;59.280;17.806;2022-09-14T17:11:38;15.00;99.90
35668;DHT22;22158;59.280;17.806;2022-09-14T17:14:04;15.00;99.90
35668;DHT22;22158;59.280;17.806;2022-09-14T17:16:30;14.90;99.90
35668;DHT22;22158;59.280;17.806;2022-09-14T17:18:59;14.90;99.90
35668;DHT22;22158;59.280;17.806;2022-09-14T17:21:30;14.80;99.90
35668;DHT22;22158;59.280;17.806;2022-09-14T17:23:56;14.80;99.90
35668;DHT22;22158;59.280;17.806;2022-09-14T17:26:22;14.70;99.90
35668;DHT22;22158;59.280;17.806;2022-09-14T17:28:50;14.60;99.90
35668;DHT22;22158;59.280;17.806;2022-09-14T17:31:18;14.60;99.90
35668;DHT22;22158;59.280;17.806;2022-09-14T17:33:45;14.60;99.90
35668;DHT22;22158;59.280;17.806;2022-09-14T17:36:12;14.60;99.90
35668;DHT22;22158;59.280;17.806;2022-09-14T17:38:39;14.50;99.90
35668;DHT22;22158;59.280;17.806;2022-09-14T17:41:09;14.50;99.90
35668;DHT22;22158;59.280;17.806;2022-09-14T17:43:37;14.50;99.90
35668;DHT22;22158;59.280;17.806;2022-09-14T17:46:04;14.50;99.90
35668;DHT22;22158;59.280;17.806;2022-09-14T17:48:32;14.50;99.90
35668;DHT22;22158;59.280;17.806;2022-09-14T17:51:06;14.40;99.90
35668;DHT22;22158;59.280;17.806;2022-09-14T17:53:39;14.40;99.90
35668;DHT22;22158;59.280;17.806;2022-09-14T17:56:08;14.40;99.90
35668;DHT22;22158;59.280;17.806;2022-09-14T17:58:35;14.40;99.90
35668;DHT22;22158;59.280;17.806;2022-09-14T18:01:19;14.30;99.90